sensor_id;sensor_type;location;lat;lon;timestamp;pressure;altitude;pressure_sealevel;temperature;humidity
45467;BME280;31212;49.734;8.490;2023-03-22T00:01:57;100324.03;;;8.23;94.55
45467;BME280;31212;49.734;8.490;2023-03-22T00:04:24;100325.81;;;8.29;94.24
45467;BME280;31212;49.734;8.490;2023-03-22T00:06:50;100323.13;;;8.20;94.52
45467;BME280;31212;49.734;8.490;2023-03-22T00:09:17;100326.56;;;8.20;94.37
45467;BME280;31212;49.734;8.490;2023-03-22T00:11:43;100323.19;;;8.26;94.69
45467;BME280;31212;49.734;8.490;2023-03-22T00:14:11;100329.22;;;8.27;94.34
45467;BME280;31212;49.734;8.490;2023-03-22T00:16:38;100326.78;;;8.40;94.13
45467;BME280;31212;49.734;8.490;2023-03-22T00:19:04;100325.91;;;8.38;94.22
45467;BME280;31212;49.734;8.490;2023-03-22T00:21:31;100323.34;;;8.40;94.32
45467;BME280;31212;49.734;8.490;2023-03-22T00:23:57;100311.25;;;8.40;93.95
45467;BME280;31212;49.734;8.490;2023-03-22T00:26:24;100307.84;;;8.43;93.84
45467;BME280;31212;49.734;8.490;2023-03-22T00:28:50;100305.22;;;8.40;93.66
45467;BME280;31212;49.734;8.490;2023-03-22T00:31:18;100313.84;;;8.39;93.72
45467;BME280;31212;49.734;8.490;2023-03-22T00:33:44;100303.47;;;8.37;93.77
45467;BME280;31212;49.734;8.490;2023-03-22T00:36:11;100300.91;;;8.40;93.51
45467;BME280;31212;49.734;8.490;2023-03-22T00:38:38;100309.56;;;8.42;93.78
45467;BME280;31212;49.734;8.490;2023-03-22T00:41:06;100297.50;;;8.41;93.28
45467;BME280;31212;49.734;8.490;2023-03-22T00:43:32;100302.69;;;8.45;93.61
45467;BME280;31212;49.734;8.490;2023-03-22T00:45:59;100300.06;;;8.41;93.31
45467;BME280;31212;49.734;8.490;2023-03-22T00:48:27;100292.34;;;8.45;92.95
45467;BME280;31212;49.734;8.490;2023-03-22T00:50:54;100297.50;;;8.45;93.08
45467;BME280;31212;49.734;8.490;2023-03-22T00:53:20;100291.53;;;8.46;93.05
45467;BME280;31212;49.734;8.490;2023-03-22T00:55:47;100283.78;;;8.49;93.00
45467;BME280;31212;49.734;8.490;2023-03-22T00:58:13;100284.69;;;8.52;92.74
45467;BME280;31212;49.734;8.490;2023-03-22T01:00:40;100282.94;;;8.48;92.48
45467;BME280;31212;49.734;8.490;2023-03-22T01:03:08;100272.56;;;8.47;92.90
45467;BME280;31212;49.734;8.490;2023-03-22T01:05:36;100270.03;;;8.53;92.50
45467;BME280;31212;49.734;8.490;2023-03-22T01:08:03;100270.06;;;8.56;92.43
45467;BME280;31212;49.734;8.490;2023-03-22T01:10:33;100260.50;;;8.49;91.98
45467;BME280;31212;49.734;8.490;2023-03-22T01:12:59;100263.13;;;8.52;92.14
45467;BME280;31212;49.734;8.490;2023-03-22T01:15:26;100260.56;;;8.56;91.94
45467;BME280;31212;49.734;8.490;2023-03-22T01:17:53;100247.66;;;8.58;91.91
45467;BME280;31212;49.734;8.490;2023-03-22T01:20:19;100247.66;;;8.59;91.70
45467;BME280;31212;49.734;8.490;2023-03-22T01:22:47;100245.97;;;8.65;91.62
45467;BME280;31212;49.734;8.490;2023-03-22T01:25:14;100240.78;;;8.58;92.04
45467;BME280;31212;49.734;8.490;2023-03-22T01:27:40;100234.69;;;8.55;91.98
45467;BME280;31212;49.734;8.490;2023-03-22T01:30:08;100240.78;;;8.58;92.07
45467;BME280;31212;49.734;8.490;2023-03-22T01:32:35;100232.13;;;8.56;91.75
45467;BME280;31212;49.734;8.490;2023-03-22T01:35:03;100233.84;;;8.56;91.98
45467;BME280;31212;49.734;8.490;2023-03-22T01:37:31;100235.53;;;8.55;91.84
45467;BME280;31212;49.734;8.490;2023-03-22T01:39:59;100240.78;;;8.58;91.87
45467;BME280;31212;49.734;8.490;2023-03-22T01:42:27;100233.88;;;8.59;91.99
45467;BME280;31212;49.734;8.490;2023-03-22T01:48:18;100223.50;;;8.59;91.69
45467;BME280;31212;49.734;8.490;2023-03-22T01:50:48;100220.03;;;8.57;91.52
45467;BME280;31212;49.734;8.490;2023-03-22T01:53:22;100229.53;;;8.58;91.72
45467;BME280;31212;49.734;8.490;2023-03-22T01:55:54;100230.41;;;8.58;91.74
45467;BME280;31212;49.734;8.490;2023-03-22T01:58:30;100221.75;;;8.55;91.30
45467;BME280;31212;49.734;8.490;2023-03-22T02:01:00;100220.94;;;8.61;91.35
45467;BME280;31212;49.734;8.490;2023-03-22T02:03:58;100221.84;;;8.67;90.96
45467;BME280;31212;49.734;8.490;2023-03-22T02:06:28;100208.06;;;8.67;90.81
45467;BME280;31212;49.734;8.490;2023-03-22T02:09:03;100206.38;;;8.73;90.67
45467;BME280;31212;49.734;8.490;2023-03-22T02:11:34;100198.56;;;8.69;90.47
45467;BME280;31212;49.734;8.490;2023-03-22T02:14:28;100203.78;;;8.73;90.18
45467;BME280;31212;49.734;8.490;2023-03-22T02:20:18;100181.34;;;8.74;89.77
45467;BME280;31212;49.734;8.490;2023-03-22T02:23:09;100180.50;;;8.78;89.22
45467;BME280;31212;49.734;8.490;2023-03-22T02:28:55;100196.88;;;8.71;89.84
45467;BME280;31212;49.734;8.490;2023-03-22T02:31:48;100198.56;;;8.69;89.66
45467;BME280;31212;49.734;8.490;2023-03-22T02:37:41;100198.63;;;8.77;89.73
45467;BME280;31212;49.734;8.490;2023-03-22T02:40:16;100195.13;;;8.70;89.80
45467;BME280;31212;49.734;8.490;2023-03-22T02:42:54;100188.28;;;8.75;89.87
45467;BME280;31212;49.734;8.490;2023-03-22T02:45:25;100184.75;;;8.67;89.86
45467;BME280;31212;49.734;8.490;2023-03-22T02:48:04;100194.22;;;8.66;89.89
45467;BME280;31212;49.734;8.490;2023-03-22T02:50:37;100201.22;;;8.75;90.21
45467;BME280;31212;49.734;8.490;2023-03-22T02:53:09;100189.13;;;8.74;90.22
45467;BME280;31212;49.734;8.490;2023-03-22T02:55:41;100198.59;;;8.72;90.25
45467;BME280;31212;49.734;8.490;2023-03-22T02:58:13;100204.53;;;8.58;90.58
45467;BME280;31212;49.734;8.490;2023-03-22T03:00:41;100210.56;;;8.59;91.03
45467;BME280;31212;49.734;8.490;2023-03-22T03:03:11;100203.66;;;8.55;90.51
45467;BME280;31212;49.734;8.490;2023-03-22T03:05:44;100207.97;;;8.54;91.14
45467;BME280;31212;49.734;8.490;2023-03-22T03:08:13;100202.81;;;8.59;91.08
45467;BME280;31212;49.734;8.490;2023-03-22T03:10:42;100199.38;;;8.60;91.19
45467;BME280;31212;49.734;8.490;2023-03-22T03:13:11;100201.13;;;8.64;90.84
45467;BME280;31212;49.734;8.490;2023-03-22T03:15:40;100205.41;;;8.64;90.75
45467;BME280;31212;49.734;8.490;2023-03-22T03:18:26;100193.31;;;8.58;90.51
45467;BME280;31212;49.734;8.490;2023-03-22T03:21:03;100197.63;;;8.57;90.78
45467;BME280;31212;49.734;8.490;2023-03-22T03:23:39;100194.19;;;8.58;90.46
45467;BME280;31212;49.734;8.490;2023-03-22T03:26:16;100192.47;;;8.62;90.53
45467;BME280;31212;49.734;8.490;2023-03-22T03:28:49;100190.78;;;8.63;90.33
45467;BME280;31212;49.734;8.490;2023-03-22T03:31:29;100185.59;;;8.64;90.38
45467;BME280;31212;49.734;8.490;2023-03-22T03:34:06;100170.06;;;8.64;90.31
45467;BME280;31212;49.734;8.490;2023-03-22T03:36:38;100170.09;;;8.66;90.10
45467;BME280;31212;49.734;8.490;2023-03-22T03:39:11;100176.09;;;8.60;90.14
45467;BME280;31212;49.734;8.490;2023-03-22T03:41:42;100169.19;;;8.61;90.37
45467;BME280;31212;49.734;8.490;2023-03-22T03:44:10;100177.75;;;8.53;90.32
45467;BME280;31212;49.734;8.490;2023-03-22T03:46:37;100171.69;;;8.50;90.92
45467;BME280;31212;49.734;8.490;2023-03-22T03:49:05;100180.25;;;8.44;91.18
45467;BME280;31212;49.734;8.490;2023-03-22T03:51:45;100184.63;;;8.48;91.04
45467;BME280;31212;49.734;8.490;2023-03-22T03:54:11;100183.66;;;8.38;91.54
45467;BME280;31212;49.734;8.490;2023-03-22T03:56:38;100191.44;;;8.43;91.42
45467;BME280;31212;49.734;8.490;2023-03-22T03:59:06;100192.25;;;8.34;91.53
45467;BME280;31212;49.734;8.490;2023-03-22T04:01:33;100193.16;;;8.39;91.82
45467;BME280;31212;49.734;8.490;2023-03-22T04:04:14;100191.31;;;8.26;91.90
45467;BME280;31212;49.734;8.490;2023-03-22T04:06:53;100186.09;;;8.23;91.56
45467;BME280;31212;49.734;8.490;2023-03-22T04:09:23;100181.75;;;8.20;92.29
45467;BME280;31212;49.734;8.490;2023-03-22T04:11:55;100195.47;;;8.12;92.06
45467;BME280;31212;49.734;8.490;2023-03-22T04:14:24;100189.38;;;8.06;92.41
45467;BME280;31212;49.734;8.490;2023-03-22T04:16:53;100194.56;;;8.09;92.75
45467;BME280;31212;49.734;8.490;2023-03-22T04:19:22;100192.06;;;8.16;92.93
45467;BME280;31212;49.734;8.490;2023-03-22T04:21:49;100194.66;;;8.17;92.70
45467;BME280;31212;49.734;8.490;2023-03-22T04:24:18;100192.81;;;8.05;93.15
45467;BME280;31212;49.734;8.490;2023-03-22T04:26:48;100192.72;;;7.96;93.34
45467;BME280;31212;49.734;8.490;2023-03-22T04:29:21;100196.22;;;8.03;93.20
45467;BME280;31212;49.734;8.490;2023-03-22T04:31:54;100191.06;;;8.01;93.15
45467;BME280;31212;49.734;8.490;2023-03-22T04:34:34;100181.53;;;7.97;93.62
45467;BME280;31212;49.734;8.490;2023-03-22T04:37:02;100178.09;;;7.98;93.58
45467;BME280;31212;49.734;8.490;2023-03-22T04:39:31;100178.09;;;7.97;93.73
45467;BME280;31212;49.734;8.490;2023-03-22T04:42:18;100177.22;;;7.96;93.64
45467;BME280;31212;49.734;8.490;2023-03-22T04:44:46;100178.94;;;7.97;93.15
45467;BME280;31212;49.734;8.490;2023-03-22T04:47:13;100179.78;;;7.96;93.62
45467;BME280;31212;49.734;8.490;2023-03-22T04:49:40;100176.31;;;7.91;93.32
45467;BME280;31212;49.734;8.490;2023-03-22T04:52:07;100175.38;;;7.83;93.66
45467;BME280;31212;49.734;8.490;2023-03-22T04:54:35;100177.03;;;7.78;93.88
45467;BME280;31212;49.734;8.490;2023-03-22T04:57:02;100176.91;;;7.65;93.62
45467;BME280;31212;49.734;8.490;2023-03-22T04:59:35;100174.28;;;7.62;93.96
45467;BME280;31212;49.734;8.490;2023-03-22T05:02:01;100181.09;;;7.55;94.20
45467;BME280;31212;49.734;8.490;2023-03-22T05:04:36;100187.84;;;7.44;94.86
45467;BME280;31212;49.734;8.490;2023-03-22T05:07:11;100196.38;;;7.38;94.48
45467;BME280;31212;49.734;8.490;2023-03-22T05:09:47;100195.34;;;7.26;95.17
45467;BME280;31212;49.734;8.490;2023-03-22T05:12:15;100203.94;;;7.24;95.98
45467;BME280;31212;49.734;8.490;2023-03-22T05:14:58;100207.41;;;7.27;95.66
45467;BME280;31212;49.734;8.490;2023-03-22T05:17:30;100214.22;;;7.21;95.51
45467;BME280;31212;49.734;8.490;2023-03-22T05:20:00;100215.03;;;7.17;95.72
45467;BME280;31212;49.734;8.490;2023-03-22T05:22:33;100207.31;;;7.20;96.25
45467;BME280;31212;49.734;8.490;2023-03-22T05:25:03;100209.81;;;7.13;95.88
45467;BME280;31212;49.734;8.490;2023-03-22T05:27:30;100210.69;;;7.13;95.65
45467;BME280;31212;49.734;8.490;2023-03-22T05:30:07;100213.09;;;7.02;96.35
45467;BME280;31212;49.734;8.490;2023-03-22T05:32:57;100206.84;;;6.86;96.75
45467;BME280;31212;49.734;8.490;2023-03-22T05:35:28;100217.25;;;6.91;96.97
45467;BME280;31212;49.734;8.490;2023-03-22T05:37:56;100216.34;;;6.87;96.51
45467;BME280;31212;49.734;8.490;2023-03-22T05:40:26;100227.59;;;6.91;96.84
45467;BME280;31212;49.734;8.490;2023-03-22T05:42:54;100228.41;;;6.88;96.68
45467;BME280;31212;49.734;8.490;2023-03-22T05:45:24;100231.97;;;6.98;97.26
45467;BME280;31212;49.734;8.490;2023-03-22T05:48:14;100234.63;;;7.03;96.34
45467;BME280;31212;49.734;8.490;2023-03-22T05:50:42;100228.47;;;6.95;96.09
45467;BME280;31212;49.734;8.490;2023-03-22T05:53:09;100227.63;;;6.94;96.94
45467;BME280;31212;49.734;8.490;2023-03-22T05:55:52;100231.81;;;6.87;96.35
45467;BME280;31212;49.734;8.490;2023-03-22T05:58:22;100229.28;;;6.90;96.96
45467;BME280;31212;49.734;8.490;2023-03-22T06:00:50;100225.91;;;6.95;96.24
45467;BME280;31212;49.734;8.490;2023-03-22T06:03:23;100225.03;;;6.94;96.46
45467;BME280;31212;49.734;8.490;2023-03-22T06:05:59;100221.50;;;6.89;96.11
45467;BME280;31212;49.734;8.490;2023-03-22T06:08:36;100226.63;;;6.84;96.98
45467;BME280;31212;49.734;8.490;2023-03-22T06:11:04;100221.50;;;6.89;96.46
45467;BME280;31212;49.734;8.490;2023-03-22T06:13:31;100220.69;;;6.92;95.97
45467;BME280;31212;49.734;8.490;2023-03-22T06:15:58;100214.72;;;6.96;96.05
45467;BME280;31212;49.734;8.490;2023-03-22T06:18:25;100212.28;;;7.03;96.25
45467;BME280;31212;49.734;8.490;2023-03-22T06:21:01;100207.25;;;7.13;95.35
45467;BME280;31212;49.734;8.490;2023-03-22T06:23:28;100210.81;;;7.22;95.77
45467;BME280;31212;49.734;8.490;2023-03-22T06:25:54;100199.81;;;7.37;94.79
45467;BME280;31212;49.734;8.490;2023-03-22T06:28:21;100203.38;;;7.47;95.20
45467;BME280;31212;49.734;8.490;2023-03-22T06:30:52;100207.00;;;7.62;94.28
45467;BME280;31212;49.734;8.490;2023-03-22T06:33:22;100210.56;;;7.74;94.60
45467;BME280;31212;49.734;8.490;2023-03-22T06:35:54;100208.22;;;7.95;94.17
45467;BME280;31212;49.734;8.490;2023-03-22T06:38:30;100195.50;;;8.16;93.13
45467;BME280;31212;49.734;8.490;2023-03-22T06:40:57;100201.88;;;8.49;92.74
45467;BME280;31212;49.734;8.490;2023-03-22T06:43:24;100179.78;;;8.96;90.82
45467;BME280;31212;49.734;8.490;2023-03-22T06:45:56;100145.59;;;9.88;87.46
45467;BME280;31212;49.734;8.490;2023-03-22T06:48:31;100057.41;;;10.16;84.72
45467;BME280;31212;49.734;8.490;2023-03-22T06:51:05;100014.16;;;10.21;82.64
45467;BME280;31212;49.734;8.490;2023-03-22T06:53:34;99990.78;;;10.49;81.65
45467;BME280;31212;49.734;8.490;2023-03-22T06:56:02;99941.81;;;11.39;79.24
45467;BME280;31212;49.734;8.490;2023-03-22T06:58:36;99816.28;;;12.10;75.29
45467;BME280;31212;49.734;8.490;2023-03-22T07:01:03;99763.09;;;12.32;73.82
45467;BME280;31212;49.734;8.490;2023-03-22T07:03:31;99650.28;;;13.28;70.26
45467;BME280;31212;49.734;8.490;2023-03-22T07:06:09;99604.41;;;12.77;69.05
45467;BME280;31212;49.734;8.490;2023-03-22T07:08:41;99641.69;;;12.27;70.20
45467;BME280;31212;49.734;8.490;2023-03-22T07:11:10;99699.34;;;12.00;71.40
45467;BME280;31212;49.734;8.490;2023-03-22T07:13:37;99767.91;;;11.94;72.27
45467;BME280;31212;49.734;8.490;2023-03-22T07:16:09;99765.53;;;11.77;72.55
45467;BME280;31212;49.734;8.490;2023-03-22T07:18:44;99789.97;;;11.60;73.18
45467;BME280;31212;49.734;8.490;2023-03-22T07:21:11;99816.28;;;11.31;73.04
45467;BME280;31212;49.734;8.490;2023-03-22T07:23:41;99867.53;;;11.12;74.54
45467;BME280;31212;49.734;8.490;2023-03-22T07:26:12;99895.28;;;11.08;75.26
45467;BME280;31212;49.734;8.490;2023-03-22T07:28:42;99930.72;;;11.14;75.24
45467;BME280;31212;49.734;8.490;2023-03-22T07:31:12;99929.88;;;11.10;75.38
45467;BME280;31212;49.734;8.490;2023-03-22T07:33:45;99964.47;;;11.17;76.47
45467;BME280;31212;49.734;8.490;2023-03-22T07:36:13;99955.88;;;11.12;76.45
45467;BME280;31212;49.734;8.490;2023-03-22T07:38:41;99958.41;;;11.23;77.04
45467;BME280;31212;49.734;8.490;2023-03-22T07:41:14;99972.19;;;11.28;76.60
45467;BME280;31212;49.734;8.490;2023-03-22T07:43:53;99953.06;;;11.40;76.53
45467;BME280;31212;49.734;8.490;2023-03-22T07:46:21;99950.38;;;11.51;75.87
45467;BME280;31212;49.734;8.490;2023-03-22T07:49:10;99932.13;;;11.58;75.62
45467;BME280;31212;49.734;8.490;2023-03-22T07:51:56;99914.75;;;11.60;75.73
45467;BME280;31212;49.734;8.490;2023-03-22T07:54:24;99924.19;;;11.71;75.99
45467;BME280;31212;49.734;8.490;2023-03-22T07:56:51;99895.44;;;11.86;75.14
45467;BME280;31212;49.734;8.490;2023-03-22T07:59:17;99900.34;;;12.19;75.16
45467;BME280;31212;49.734;8.490;2023-03-22T08:01:44;99880.06;;;12.42;74.10
45467;BME280;31212;49.734;8.490;2023-03-22T08:04:36;99820.69;;;12.69;72.93
45467;BME280;31212;49.734;8.490;2023-03-22T08:07:11;99774.38;;;12.88;71.71
45467;BME280;31212;49.734;8.490;2023-03-22T08:09:40;99754.94;;;13.08;71.16
45467;BME280;31212;49.734;8.490;2023-03-22T08:12:07;99739.88;;;13.22;70.76
45467;BME280;31212;49.734;8.490;2023-03-22T08:14:35;99705.97;;;13.25;69.89
45467;BME280;31212;49.734;8.490;2023-03-22T08:17:04;99696.41;;;13.71;69.38
45467;BME280;31212;49.734;8.490;2023-03-22T08:19:32;99662.84;;;13.93;68.66
45467;BME280;31212;49.734;8.490;2023-03-22T08:21:59;99643.41;;;14.07;68.35
45467;BME280;31212;49.734;8.490;2023-03-22T08:24:47;99681.88;;;13.99;68.88
45467;BME280;31212;49.734;8.490;2023-03-22T08:27:23;99659.47;;;14.26;68.04
45467;BME280;31212;49.734;8.490;2023-03-22T08:29:50;99624.88;;;14.87;67.17
45467;BME280;31212;49.734;8.490;2023-03-22T08:32:17;99549.41;;;15.36;65.29
45467;BME280;31212;49.734;8.490;2023-03-22T08:34:44;99452.63;;;16.16;62.55
45467;BME280;31212;49.734;8.490;2023-03-22T08:37:11;99400.69;;;16.75;61.20
45467;BME280;31212;49.734;8.490;2023-03-22T08:39:39;99325.03;;;18.51;58.31
45467;BME280;31212;49.734;8.490;2023-03-22T08:42:25;99155.44;;;18.61;54.79
45467;BME280;31212;49.734;8.490;2023-03-22T08:44:52;99168.00;;;17.62;55.35
45467;BME280;31212;49.734;8.490;2023-03-22T08:47:21;99198.16;;;16.51;56.51
45467;BME280;31212;49.734;8.490;2023-03-22T08:49:52;99273.59;;;15.95;58.16
45467;BME280;31212;49.734;8.490;2023-03-22T08:52:29;99321.75;;;15.66;58.94
45467;BME280;31212;49.734;8.490;2023-03-22T08:55:03;99376.19;;;15.01;60.32
45467;BME280;31212;49.734;8.490;2023-03-22T08:57:57;99430.38;;;14.95;60.91
45467;BME280;31212;49.734;8.490;2023-03-22T09:00:30;99517.81;;;14.52;62.73
45467;BME280;31212;49.734;8.490;2023-03-22T09:03:07;99515.28;;;14.49;62.70
45467;BME280;31212;49.734;8.490;2023-03-22T09:05:34;99500.66;;;14.75;62.20
45467;BME280;31212;49.734;8.490;2023-03-22T09:08:01;99477.91;;;15.37;61.33
45467;BME280;31212;49.734;8.490;2023-03-22T09:10:36;99383.72;;;15.63;60.07
45467;BME280;31212;49.734;8.490;2023-03-22T09:13:05;99374.81;;;16.20;59.12
45467;BME280;31212;49.734;8.490;2023-03-22T09:15:32;99273.00;;;17.01;56.76
45467;BME280;31212;49.734;8.490;2023-03-22T09:18:14;99218.28;;;17.93;54.90
45467;BME280;31212;49.734;8.490;2023-03-22T09:20:42;99119.75;;;17.65;53.56
45467;BME280;31212;49.734;8.490;2023-03-22T09:23:10;99185.31;;;17.66;54.29
45467;BME280;31212;49.734;8.490;2023-03-22T09:25:36;99204.38;;;18.10;54.02
45467;BME280;31212;49.734;8.490;2023-03-22T09:28:04;99143.03;;;18.28;52.88
45467;BME280;31212;49.734;8.490;2023-03-22T09:30:31;99123.53;;;17.59;53.06
45467;BME280;31212;49.734;8.490;2023-03-22T09:32:58;99203.38;;;17.93;53.76
45467;BME280;31212;49.734;8.490;2023-03-22T09:35:25;99225.00;;;18.18;53.96
45467;BME280;31212;49.734;8.490;2023-03-22T09:37:56;99092.34;;;18.09;52.15
45467;BME280;31212;49.734;8.490;2023-03-22T09:40:26;99113.53;;;17.68;52.69
45467;BME280;31212;49.734;8.490;2023-03-22T09:42:56;99096.69;;;17.91;52.04
45467;BME280;31212;49.734;8.490;2023-03-22T09:45:30;99070.22;;;17.40;52.16
45467;BME280;31212;49.734;8.490;2023-03-22T09:48:05;99116.34;;;18.01;51.90
45467;BME280;31212;49.734;8.490;2023-03-22T09:50:42;99021.50;;;17.15;51.78
45467;BME280;31212;49.734;8.490;2023-03-22T09:53:13;99148.00;;;16.80;53.52
45467;BME280;31212;49.734;8.490;2023-03-22T09:55:43;99166.53;;;17.17;53.27
45467;BME280;31212;49.734;8.490;2023-03-22T09:58:18;99115.16;;;16.51;53.71
45467;BME280;31212;49.734;8.490;2023-03-22T10:00:54;99173.41;;;16.13;54.41
45467;BME280;31212;49.734;8.490;2023-03-22T10:03:31;99233.06;;;15.83;55.72
45467;BME280;31212;49.734;8.490;2023-03-22T10:06:09;99279.06;;;16.12;55.88
45467;BME280;31212;49.734;8.490;2023-03-22T10:08:44;99203.38;;;16.51;54.29
45467;BME280;31212;49.734;8.490;2023-03-22T10:11:21;99217.81;;;16.81;55.02
45467;BME280;31212;49.734;8.490;2023-03-22T10:13:56;99160.91;;;17.26;53.24
45467;BME280;31212;49.734;8.490;2023-03-22T10:16:28;99069.31;;;17.77;51.42
45467;BME280;31212;49.734;8.490;2023-03-22T10:19:03;99029.81;;;19.02;49.55
45467;BME280;31212;49.734;8.490;2023-03-22T10:21:31;98913.94;;;19.51;47.58
45467;BME280;31212;49.734;8.490;2023-03-22T10:24:01;98922.94;;;19.16;47.81
45467;BME280;31212;49.734;8.490;2023-03-22T10:26:33;98910.00;;;18.96;47.74
45467;BME280;31212;49.734;8.490;2023-03-22T10:29:03;98897.34;;;19.95;46.39
45467;BME280;31212;49.734;8.490;2023-03-22T10:31:33;98820.94;;;20.24;44.71
45467;BME280;31212;49.734;8.490;2023-03-22T10:34:02;98792.16;;;20.63;43.54
45467;BME280;31212;49.734;8.490;2023-03-22T10:36:33;98829.09;;;20.48;43.89
45467;BME280;31212;49.734;8.490;2023-03-22T10:39:05;98759.59;;;20.22;43.41
45467;BME280;31212;49.734;8.490;2023-03-22T10:41:35;98829.50;;;20.28;44.13
45467;BME280;31212;49.734;8.490;2023-03-22T10:44:04;98808.25;;;19.88;44.42
45467;BME280;31212;49.734;8.490;2023-03-22T10:46:36;98796.25;;;19.53;44.27
45467;BME280;31212;49.734;8.490;2023-03-22T10:49:03;98809.50;;;18.59;45.48
45467;BME280;31212;49.734;8.490;2023-03-22T10:51:34;98872.91;;;17.15;47.73
45467;BME280;31212;49.734;8.490;2023-03-22T10:54:04;99008.41;;;16.96;49.64
45467;BME280;31212;49.734;8.490;2023-03-22T10:56:30;99085.81;;;17.43;50.21
45467;BME280;31212;49.734;8.490;2023-03-22T10:58:57;99105.88;;;18.89;48.57
45467;BME280;31212;49.734;8.490;2023-03-22T11:01:26;98978.34;;;20.06;45.91
45467;BME280;31212;49.734;8.490;2023-03-22T11:03:57;98840.03;;;20.28;43.84
45467;BME280;31212;49.734;8.490;2023-03-22T11:06:26;98736.22;;;19.89;42.99
45467;BME280;31212;49.734;8.490;2023-03-22T11:08:56;98820.84;;;19.82;43.88
45467;BME280;31212;49.734;8.490;2023-03-22T11:11:25;98762.69;;;21.24;41.80
45467;BME280;31212;49.734;8.490;2023-03-22T11:13:55;98691.88;;;21.43;40.79
45467;BME280;31212;49.734;8.490;2023-03-22T11:16:24;98724.34;;;21.95;40.79
45467;BME280;31212;49.734;8.490;2023-03-22T11:18:51;98710.13;;;21.59;41.07
45467;BME280;31212;49.734;8.490;2023-03-22T11:21:23;98695.66;;;21.13;41.17
45467;BME280;31212;49.734;8.490;2023-03-22T11:23:57;98675.75;;;20.42;41.75
45467;BME280;31212;49.734;8.490;2023-03-22T11:26:28;98813.16;;;19.94;43.83
45467;BME280;31212;49.734;8.490;2023-03-22T11:29:01;98920.47;;;19.74;45.47
45467;BME280;31212;49.734;8.490;2023-03-22T11:31:48;98925.38;;;19.04;46.33
45467;BME280;31212;49.734;8.490;2023-03-22T11:34:18;98951.09;;;18.65;46.91
45467;BME280;31212;49.734;8.490;2023-03-22T11:36:47;98966.72;;;18.68;47.17
45467;BME280;31212;49.734;8.490;2023-03-22T11:39:21;98926.78;;;19.41;45.79
45467;BME280;31212;49.734;8.490;2023-03-22T11:41:48;98910.81;;;19.75;45.22
45467;BME280;31212;49.734;8.490;2023-03-22T11:44:16;98885.41;;;20.19;44.33
45467;BME280;31212;49.734;8.490;2023-03-22T11:46:49;98817.91;;;19.73;44.21
45467;BME280;31212;49.734;8.490;2023-03-22T11:49:19;98837.63;;;19.65;44.46
45467;BME280;31212;49.734;8.490;2023-03-22T11:51:47;98836.38;;;19.57;44.50
45467;BME280;31212;49.734;8.490;2023-03-22T11:54:20;98883.34;;;19.34;45.47
45467;BME280;31212;49.734;8.490;2023-03-22T11:56:49;98899.81;;;19.22;45.74
45467;BME280;31212;49.734;8.490;2023-03-22T11:59:22;98894.19;;;19.44;45.47
45467;BME280;31212;49.734;8.490;2023-03-22T12:01:51;98845.28;;;19.40;44.98
45467;BME280;31212;49.734;8.490;2023-03-22T12:04:24;98815.88;;;19.47;44.73
45467;BME280;31212;49.734;8.490;2023-03-22T12:06:56;98888.66;;;19.93;45.12
45467;BME280;31212;49.734;8.490;2023-03-22T12:09:30;98795.69;;;19.77;43.99
45467;BME280;31212;49.734;8.490;2023-03-22T12:12:00;98763.53;;;19.72;43.78
45467;BME280;31212;49.734;8.490;2023-03-22T12:14:32;98744.31;;;19.86;43.38
45467;BME280;31212;49.734;8.490;2023-03-22T12:17:04;98718.81;;;19.86;43.14
45467;BME280;31212;49.734;8.490;2023-03-22T12:19:46;98842.25;;;20.48;44.04
45467;BME280;31212;49.734;8.490;2023-03-22T12:22:20;98672.91;;;20.17;42.23
45467;BME280;31212;49.734;8.490;2023-03-22T12:24:49;98707.28;;;20.16;42.64
45467;BME280;31212;49.734;8.490;2023-03-22T12:27:19;98647.03;;;19.97;41.96
45467;BME280;31212;49.734;8.490;2023-03-22T12:29:53;98650.78;;;19.78;42.38
45467;BME280;31212;49.734;8.490;2023-03-22T12:32:24;98725.84;;;20.00;43.07
45467;BME280;31212;49.734;8.490;2023-03-22T12:34:52;98690.38;;;20.06;42.78
45467;BME280;31212;49.734;8.490;2023-03-22T12:37:24;98720.09;;;20.08;43.04
45467;BME280;31212;49.734;8.490;2023-03-22T12:39:55;98681.72;;;19.89;42.93
45467;BME280;31212;49.734;8.490;2023-03-22T12:42:27;98608.94;;;19.32;42.29
45467;BME280;31212;49.734;8.490;2023-03-22T12:44:58;98647.75;;;19.14;43.16
45467;BME280;31212;49.734;8.490;2023-03-22T12:47:29;98699.03;;;19.21;43.65
45467;BME280;31212;49.734;8.490;2023-03-22T12:50:00;98719.56;;;19.00;44.14
45467;BME280;31212;49.734;8.490;2023-03-22T12:52:34;98721.75;;;18.77;44.49
45467;BME280;31212;49.734;8.490;2023-03-22T12:55:03;98713.50;;;18.67;44.40
45467;BME280;31212;49.734;8.490;2023-03-22T12:57:31;98707.03;;;18.89;44.08
45467;BME280;31212;49.734;8.490;2023-03-22T13:00:02;98715.66;;;19.07;43.99
45467;BME280;31212;49.734;8.490;2023-03-22T13:02:34;98717.56;;;19.34;43.61
45467;BME280;31212;49.734;8.490;2023-03-22T13:05:03;98738.84;;;19.89;43.47
45467;BME280;31212;49.734;8.490;2023-03-22T13:07:49;98691.09;;;20.08;42.67
45467;BME280;31212;49.734;8.490;2023-03-22T13:10:40;98754.38;;;20.35;43.12
45467;BME280;31212;49.734;8.490;2023-03-22T13:13:09;98692.91;;;20.34;42.47
45467;BME280;31212;49.734;8.490;2023-03-22T13:15:37;98620.06;;;20.33;41.50
45467;BME280;31212;49.734;8.490;2023-03-22T13:18:22;98545.50;;;20.19;40.94
45467;BME280;31212;49.734;8.490;2023-03-22T13:21:07;98582.44;;;20.44;41.10
45467;BME280;31212;49.734;8.490;2023-03-22T13:23:51;98517.13;;;20.09;40.39
45467;BME280;31212;49.734;8.490;2023-03-22T13:26:21;98552.59;;;20.18;40.07
45467;BME280;31212;49.734;8.490;2023-03-22T13:28:56;98595.63;;;20.44;40.60
45467;BME280;31212;49.734;8.490;2023-03-22T13:31:35;98560.72;;;20.28;39.79
45467;BME280;31212;49.734;8.490;2023-03-22T13:34:02;98518.97;;;20.34;39.56
45467;BME280;31212;49.734;8.490;2023-03-22T13:36:30;98514.03;;;20.43;39.28